sensor_id;sensor_type;location;lat;lon;timestamp;temperature;humidity
14006;DHT22;7078;51.542;7.314;2023-05-07T00:01:33;13.80;99.90
14006;DHT22;7078;51.542;7.314;2023-05-07T00:03:58;13.80;99.90
14006;DHT22;7078;51.542;7.314;2023-05-07T00:06:24;13.90;99.90
14006;DHT22;7078;51.542;7.314;2023-05-07T00:08:51;13.80;99.90
14006;DHT22;7078;51.542;7.314;2023-05-07T00:11:16;13.90;99.90
14006;DHT22;7078;51.542;7.314;2023-05-07T00:13:42;13.90;99.90
14006;DHT22;7078;51.542;7.314;2023-05-07T00:16:08;13.90;99.90
14006;DHT22;7078;51.542;7.314;2023-05-07T00:18:33;13.90;99.90
14006;DHT22;7078;51.542;7.314;2023-05-07T00:20:59;13.90;99.90
14006;DHT22;7078;51.542;7.314;2023-05-07T00:23:24;13.90;99.90
14006;DHT22;7078;51.542;7.314;2023-05-07T00:25:50;13.90;99.90
14006;DHT22;7078;51.542;7.314;2023-05-07T00:28:15;13.90;99.90
14006;DHT22;7078;51.542;7.314;2023-05-07T00:30:41;13.90;99.90
14006;DHT22;7078;51.542;7.314;2023-05-07T00:33:06;13.80;99.90
14006;DHT22;7078;51.542;7.314;2023-05-07T00:35:32;13.80;99.90
14006;DHT22;7078;51.542;7.314;2023-05-07T00:37:57;13.80;99.90
14006;DHT22;7078;51.542;7.314;2023-05-07T00:40:24;13.80;99.90
14006;DHT22;7078;51.542;7.314;2023-05-07T00:42:50;13.80;99.90
14006;DHT22;7078;51.542;7.314;2023-05-07T00:45:16;13.90;99.90
14006;DHT22;7078;51.542;7.314;2023-05-07T00:47:42;13.80;99.90
14006;DHT22;7078;51.542;7.314;2023-05-07T00:50:08;13.90;99.90
14006;DHT22;7078;51.542;7.314;2023-05-07T00:52:36;13.80;99.90
14006;DHT22;7078;51.542;7.314;2023-05-07T00:55:05;13.80;99.90
14006;DHT22;7078;51.542;7.314;2023-05-07T00:57:37;13.80;99.90
14006;DHT22;7078;51.542;7.314;2023-05-07T01:00:08;13.80;99.90
14006;DHT22;7078;51.542;7.314;2023-05-07T01:02:35;13.80;99.90
14006;DHT22;7078;51.542;7.314;2023-05-07T01:05:01;13.80;99.90
14006;DHT22;7078;51.542;7.314;2023-05-07T01:07:29;13.80;99.90
14006;DHT22;7078;51.542;7.314;2023-05-07T01:09:56;13.90;99.90
14006;DHT22;7078;51.542;7.314;2023-05-07T01:12:22;13.70;99.90
14006;DHT22;7078;51.542;7.314;2023-05-07T01:14:48;13.70;99.90
14006;DHT22;7078;51.542;7.314;2023-05-07T01:17:15;13.70;99.90
14006;DHT22;7078;51.542;7.314;2023-05-07T01:19:41;13.80;99.90
14006;DHT22;7078;51.542;7.314;2023-05-07T01:22:10;13.80;99.90
14006;DHT22;7078;51.542;7.314;2023-05-07T01:24:37;13.70;99.90
14006;DHT22;7078;51.542;7.314;2023-05-07T01:27:03;13.70;99.90
14006;DHT22;7078;51.542;7.314;2023-05-07T01:29:29;13.90;99.90
14006;DHT22;7078;51.542;7.314;2023-05-07T01:31:57;13.80;99.90
14006;DHT22;7078;51.542;7.314;2023-05-07T01:34:25;13.80;99.90
14006;DHT22;7078;51.542;7.314;2023-05-07T01:36:54;13.70;99.90
14006;DHT22;7078;51.542;7.314;2023-05-07T01:39:22;13.70;99.90
14006;DHT22;7078;51.542;7.314;2023-05-07T01:41:49;13.70;99.90
14006;DHT22;7078;51.542;7.314;2023-05-07T01:44:15;13.70;99.90
14006;DHT22;7078;51.542;7.314;2023-05-07T01:46:42;13.80;99.90
14006;DHT22;7078;51.542;7.314;2023-05-07T01:49:08;13.70;99.90
14006;DHT22;7078;51.542;7.314;2023-05-07T01:51:34;13.80;99.90
14006;DHT22;7078;51.542;7.314;2023-05-07T01:53:59;13.80;99.90
14006;DHT22;7078;51.542;7.314;2023-05-07T01:56:25;13.80;99.90
14006;DHT22;7078;51.542;7.314;2023-05-07T01:58:51;13.80;99.90
14006;DHT22;7078;51.542;7.314;2023-05-07T02:01:17;13.70;99.90
14006;DHT22;7078;51.542;7.314;2023-05-07T02:03:43;13.70;99.90
14006;DHT22;7078;51.542;7.314;2023-05-07T02:06:09;13.70;99.90
14006;DHT22;7078;51.542;7.314;2023-05-07T02:08:34;13.70;99.90
14006;DHT22;7078;51.542;7.314;2023-05-07T02:11:00;13.70;99.90
14006;DHT22;7078;51.542;7.314;2023-05-07T02:13:31;13.70;99.90
14006;DHT22;7078;51.542;7.314;2023-05-07T02:15:57;13.70;99.90
14006;DHT22;7078;51.542;7.314;2023-05-07T02:18:23;13.70;99.90
14006;DHT22;7078;51.542;7.314;2023-05-07T02:20:48;13.60;99.90
14006;DHT22;7078;51.542;7.314;2023-05-07T02:23:14;13.70;99.90
14006;DHT22;7078;51.542;7.314;2023-05-07T02:25:39;13.70;99.90
14006;DHT22;7078;51.542;7.314;2023-05-07T02:28:05;13.70;99.90
14006;DHT22;7078;51.542;7.314;2023-05-07T02:30:31;13.70;99.90
14006;DHT22;7078;51.542;7.314;2023-05-07T02:32:57;13.60;99.90
14006;DHT22;7078;51.542;7.314;2023-05-07T02:35:24;13.70;99.90
14006;DHT22;7078;51.542;7.314;2023-05-07T02:37:50;13.60;99.90
14006;DHT22;7078;51.542;7.314;2023-05-07T02:40:15;13.60;99.90
14006;DHT22;7078;51.542;7.314;2023-05-07T02:42:41;13.50;99.90
14006;DHT22;7078;51.542;7.314;2023-05-07T02:45:07;13.60;99.90
14006;DHT22;7078;51.542;7.314;2023-05-07T02:47:33;13.60;99.90
14006;DHT22;7078;51.542;7.314;2023-05-07T02:49:58;13.60;99.90
14006;DHT22;7078;51.542;7.314;2023-05-07T02:52:24;13.50;99.90
14006;DHT22;7078;51.542;7.314;2023-05-07T02:54:49;13.50;99.90
14006;DHT22;7078;51.542;7.314;2023-05-07T02:57:15;13.60;99.90
14006;DHT22;7078;51.542;7.314;2023-05-07T02:59:42;13.50;99.90
14006;DHT22;7078;51.542;7.314;2023-05-07T03:02:07;13.50;99.90
14006;DHT22;7078;51.542;7.314;2023-05-07T03:04:33;13.50;99.90
14006;DHT22;7078;51.542;7.314;2023-05-07T03:06:58;13.50;99.90
14006;DHT22;7078;51.542;7.314;2023-05-07T03:09:24;13.60;99.90
14006;DHT22;7078;51.542;7.314;2023-05-07T03:11:50;13.40;99.90
14006;DHT22;7078;51.542;7.314;2023-05-07T03:14:15;13.50;99.90
14006;DHT22;7078;51.542;7.314;2023-05-07T03:16:41;13.50;99.90
14006;DHT22;7078;51.542;7.314;2023-05-07T03:19:06;13.50;99.90
14006;DHT22;7078;51.542;7.314;2023-05-07T03:21:32;13.50;99.90
14006;DHT22;7078;51.542;7.314;2023-05-07T03:23:59;13.50;99.90
14006;DHT22;7078;51.542;7.314;2023-05-07T03:26:24;13.50;99.90
14006;DHT22;7078;51.542;7.314;2023-05-07T03:28:50;13.50;99.90
14006;DHT22;7078;51.542;7.314;2023-05-07T03:31:16;13.50;99.90
14006;DHT22;7078;51.542;7.314;2023-05-07T03:33:53;13.50;99.90
14006;DHT22;7078;51.542;7.314;2023-05-07T03:36:19;13.50;99.90
14006;DHT22;7078;51.542;7.314;2023-05-07T03:38:44;13.60;99.90
14006;DHT22;7078;51.542;7.314;2023-05-07T03:41:10;13.60;99.90
14006;DHT22;7078;51.542;7.314;2023-05-07T03:43:35;13.50;99.90
14006;DHT22;7078;51.542;7.314;2023-05-07T03:46:01;13.50;99.90
14006;DHT22;7078;51.542;7.314;2023-05-07T03:48:27;13.40;99.90
14006;DHT22;7078;51.542;7.314;2023-05-07T03:50:52;13.40;99.90
14006;DHT22;7078;51.542;7.314;2023-05-07T03:53:18;13.40;99.90
14006;DHT22;7078;51.542;7.314;2023-05-07T03:55:43;13.40;99.90
14006;DHT22;7078;51.542;7.314;2023-05-07T03:58:09;13.40;99.90
14006;DHT22;7078;51.542;7.314;2023-05-07T04:00:34;13.40;99.90
14006;DHT22;7078;51.542;7.314;2023-05-07T04:03:04;13.40;99.90
14006;DHT22;7078;51.542;7.314;2023-05-07T04:05:30;13.40;99.90
14006;DHT22;7078;51.542;7.314;2023-05-07T04:07:58;13.40;99.90
14006;DHT22;7078;51.542;7.314;2023-05-07T04:10:23;13.40;99.90
14006;DHT22;7078;51.542;7.314;2023-05-07T04:12:49;13.40;99.90
14006;DHT22;7078;51.542;7.314;2023-05-07T04:15:14;13.40;99.90
14006;DHT22;7078;51.542;7.314;2023-05-07T04:17:40;13.40;99.90
14006;DHT22;7078;51.542;7.314;2023-05-07T04:20:09;13.40;99.90
14006;DHT22;7078;51.542;7.314;2023-05-07T04:22:36;13.40;99.90
14006;DHT22;7078;51.542;7.314;2023-05-07T04:25:02;13.40;99.90
14006;DHT22;7078;51.542;7.314;2023-05-07T04:27:28;13.40;99.90
14006;DHT22;7078;51.542;7.314;2023-05-07T04:29:54;13.50;99.90
14006;DHT22;7078;51.542;7.314;2023-05-07T04:32:22;13.50;99.90
14006;DHT22;7078;51.542;7.314;2023-05-07T04:34:47;13.50;99.90
14006;DHT22;7078;51.542;7.314;2023-05-07T04:37:13;13.50;99.90
14006;DHT22;7078;51.542;7.314;2023-05-07T04:39:38;13.60;99.90
14006;DHT22;7078;51.542;7.314;2023-05-07T04:42:04;13.70;99.90
14006;DHT22;7078;51.542;7.314;2023-05-07T04:44:29;13.60;99.90
14006;DHT22;7078;51.542;7.314;2023-05-07T04:46:56;13.70;99.90
14006;DHT22;7078;51.542;7.314;2023-05-07T04:49:22;13.70;99.90
14006;DHT22;7078;51.542;7.314;2023-05-07T04:51:47;13.70;99.90
14006;DHT22;7078;51.542;7.314;2023-05-07T04:54:13;13.70;99.90
14006;DHT22;7078;51.542;7.314;2023-05-07T04:56:38;13.80;99.90
14006;DHT22;7078;51.542;7.314;2023-05-07T04:59:04;13.80;99.90
14006;DHT22;7078;51.542;7.314;2023-05-07T05:01:31;13.90;99.90
14006;DHT22;7078;51.542;7.314;2023-05-07T05:03:56;14.00;99.90
14006;DHT22;7078;51.542;7.314;2023-05-07T05:06:22;14.00;99.90
14006;DHT22;7078;51.542;7.314;2023-05-07T05:08:47;14.10;99.90
14006;DHT22;7078;51.542;7.314;2023-05-07T05:11:13;14.20;99.90
14006;DHT22;7078;51.542;7.314;2023-05-07T05:13:39;14.20;99.90
14006;DHT22;7078;51.542;7.314;2023-05-07T05:16:05;14.20;99.90
14006;DHT22;7078;51.542;7.314;2023-05-07T05:18:32;14.20;99.90
14006;DHT22;7078;51.542;7.314;2023-05-07T05:20:58;14.20;99.90
14006;DHT22;7078;51.542;7.314;2023-05-07T05:23:23;14.40;99.90
14006;DHT22;7078;51.542;7.314;2023-05-07T05:25:49;14.30;99.90
14006;DHT22;7078;51.542;7.314;2023-05-07T05:28:15;14.50;99.90
14006;DHT22;7078;51.542;7.314;2023-05-07T05:30:40;14.30;99.90
14006;DHT22;7078;51.542;7.314;2023-05-07T05:33:06;14.40;99.90
14006;DHT22;7078;51.542;7.314;2023-05-07T05:35:31;14.30;99.90
14006;DHT22;7078;51.542;7.314;2023-05-07T05:37:57;14.40;99.90
14006;DHT22;7078;51.542;7.314;2023-05-07T05:40:22;14.40;99.90
14006;DHT22;7078;51.542;7.314;2023-05-07T05:42:48;14.40;99.90
14006;DHT22;7078;51.542;7.314;2023-05-07T05:45:14;14.50;99.90
14006;DHT22;7078;51.542;7.314;2023-05-07T05:47:39;14.60;99.90
14006;DHT22;7078;51.542;7.314;2023-05-07T05:50:06;14.70;99.90
14006;DHT22;7078;51.542;7.314;2023-05-07T05:52:32;14.80;99.90
14006;DHT22;7078;51.542;7.314;2023-05-07T05:54:57;14.90;99.90
14006;DHT22;7078;51.542;7.314;2023-05-07T05:57:23;14.80;99.90
14006;DHT22;7078;51.542;7.314;2023-05-07T05:59:48;15.10;99.90
14006;DHT22;7078;51.542;7.314;2023-05-07T06:02:14;15.10;99.90
14006;DHT22;7078;51.542;7.314;2023-05-07T06:04:40;15.00;99.90
14006;DHT22;7078;51.542;7.314;2023-05-07T06:07:05;15.10;99.90
14006;DHT22;7078;51.542;7.314;2023-05-07T06:09:31;15.10;99.90
14006;DHT22;7078;51.542;7.314;2023-05-07T06:11:56;15.40;99.90
14006;DHT22;7078;51.542;7.314;2023-05-07T06:14:22;15.40;99.90
14006;DHT22;7078;51.542;7.314;2023-05-07T06:16:48;15.40;99.90
14006;DHT22;7078;51.542;7.314;2023-05-07T06:19:13;15.60;99.90
14006;DHT22;7078;51.542;7.314;2023-05-07T06:21:39;15.90;99.90
14006;DHT22;7078;51.542;7.314;2023-05-07T06:24:05;15.80;99.90
14006;DHT22;7078;51.542;7.314;2023-05-07T06:26:31;15.90;99.90
14006;DHT22;7078;51.542;7.314;2023-05-07T06:28:57;16.00;99.90
14006;DHT22;7078;51.542;7.314;2023-05-07T06:31:22;16.30;99.90
14006;DHT22;7078;51.542;7.314;2023-05-07T06:33:48;16.50;99.90
14006;DHT22;7078;51.542;7.314;2023-05-07T06:36:14;16.70;99.90
14006;DHT22;7078;51.542;7.314;2023-05-07T06:38:40;16.70;99.90
14006;DHT22;7078;51.542;7.314;2023-05-07T06:41:06;16.80;99.90
14006;DHT22;7078;51.542;7.314;2023-05-07T06:43:32;16.80;99.90
14006;DHT22;7078;51.542;7.314;2023-05-07T06:45:58;16.80;99.90
14006;DHT22;7078;51.542;7.314;2023-05-07T06:48:23;16.80;99.90
14006;DHT22;7078;51.542;7.314;2023-05-07T06:50:49;16.90;99.90
14006;DHT22;7078;51.542;7.314;2023-05-07T06:53:15;17.00;99.90
14006;DHT22;7078;51.542;7.314;2023-05-07T06:55:41;17.20;99.90
14006;DHT22;7078;51.542;7.314;2023-05-07T06:58:07;17.20;99.90
14006;DHT22;7078;51.542;7.314;2023-05-07T07:00:32;17.10;99.90
14006;DHT22;7078;51.542;7.314;2023-05-07T07:02:58;17.00;99.90
14006;DHT22;7078;51.542;7.314;2023-05-07T07:05:25;17.10;99.90
14006;DHT22;7078;51.542;7.314;2023-05-07T07:07:50;17.00;99.90
14006;DHT22;7078;51.542;7.314;2023-05-07T07:10:24;17.00;99.90
14006;DHT22;7078;51.542;7.314;2023-05-07T07:12:50;17.10;99.90
14006;DHT22;7078;51.542;7.314;2023-05-07T07:15:16;17.10;99.90
14006;DHT22;7078;51.542;7.314;2023-05-07T07:17:41;17.10;99.90
14006;DHT22;7078;51.542;7.314;2023-05-07T07:20:07;17.10;99.90
14006;DHT22;7078;51.542;7.314;2023-05-07T07:22:33;17.10;99.90
14006;DHT22;7078;51.542;7.314;2023-05-07T07:24:59;17.20;99.90
14006;DHT22;7078;51.542;7.314;2023-05-07T07:27:25;17.30;99.90
14006;DHT22;7078;51.542;7.314;2023-05-07T07:29:50;17.30;99.90
14006;DHT22;7078;51.542;7.314;2023-05-07T07:32:16;17.30;99.90
14006;DHT22;7078;51.542;7.314;2023-05-07T07:34:41;17.30;99.90
14006;DHT22;7078;51.542;7.314;2023-05-07T07:37:08;17.20;99.90
14006;DHT22;7078;51.542;7.314;2023-05-07T07:39:34;17.20;99.90
14006;DHT22;7078;51.542;7.314;2023-05-07T07:42:00;17.30;99.90
14006;DHT22;7078;51.542;7.314;2023-05-07T07:44:27;17.30;99.90
14006;DHT22;7078;51.542;7.314;2023-05-07T07:46:53;17.20;99.90
14006;DHT22;7078;51.542;7.314;2023-05-07T07:49:18;17.10;99.90
14006;DHT22;7078;51.542;7.314;2023-05-07T07:51:44;17.10;99.90
14006;DHT22;7078;51.542;7.314;2023-05-07T07:54:10;17.20;99.90
14006;DHT22;7078;51.542;7.314;2023-05-07T07:56:36;17.20;99.90
14006;DHT22;7078;51.542;7.314;2023-05-07T07:59:01;17.20;99.90
14006;DHT22;7078;51.542;7.314;2023-05-07T08:01:29;17.30;99.90
14006;DHT22;7078;51.542;7.314;2023-05-07T08:03:55;17.40;99.90
14006;DHT22;7078;51.542;7.314;2023-05-07T08:06:20;17.50;99.90
14006;DHT22;7078;51.542;7.314;2023-05-07T08:08:46;17.60;99.90
14006;DHT22;7078;51.542;7.314;2023-05-07T08:11:12;17.70;99.90
14006;DHT22;7078;51.542;7.314;2023-05-07T08:13:38;17.80;99.90
14006;DHT22;7078;51.542;7.314;2023-05-07T08:16:04;18.00;99.90
14006;DHT22;7078;51.542;7.314;2023-05-07T08:18:30;18.00;99.90
14006;DHT22;7078;51.542;7.314;2023-05-07T08:20:55;18.10;99.90
14006;DHT22;7078;51.542;7.314;2023-05-07T08:23:21;18.20;99.90
14006;DHT22;7078;51.542;7.314;2023-05-07T08:25:48;18.10;99.90
14006;DHT22;7078;51.542;7.314;2023-05-07T08:28:13;18.10;99.90
14006;DHT22;7078;51.542;7.314;2023-05-07T08:30:39;18.10;99.90
14006;DHT22;7078;51.542;7.314;2023-05-07T08:33:04;18.00;99.90
14006;DHT22;7078;51.542;7.314;2023-05-07T08:35:30;18.00;99.90
14006;DHT22;7078;51.542;7.314;2023-05-07T08:37:56;18.10;99.90
14006;DHT22;7078;51.542;7.314;2023-05-07T08:40:25;18.10;99.90
14006;DHT22;7078;51.542;7.314;2023-05-07T08:42:52;18.00;99.90
14006;DHT22;7078;51.542;7.314;2023-05-07T08:45:19;18.10;99.90
14006;DHT22;7078;51.542;7.314;2023-05-07T08:47:49;18.10;99.90
14006;DHT22;7078;51.542;7.314;2023-05-07T08:50:17;18.40;99.90
14006;DHT22;7078;51.542;7.314;2023-05-07T08:52:43;18.40;99.90
14006;DHT22;7078;51.542;7.314;2023-05-07T08:55:09;18.50;99.90
14006;DHT22;7078;51.542;7.314;2023-05-07T08:57:35;18.60;99.90
14006;DHT22;7078;51.542;7.314;2023-05-07T09:00:02;18.80;99.90
14006;DHT22;7078;51.542;7.314;2023-05-07T09:02:28;18.70;99.90
14006;DHT22;7078;51.542;7.314;2023-05-07T09:04:54;18.70;99.90
14006;DHT22;7078;51.542;7.314;2023-05-07T09:07:20;18.60;99.90
14006;DHT22;7078;51.542;7.314;2023-05-07T09:09:46;18.60;99.90
14006;DHT22;7078;51.542;7.314;2023-05-07T09:12:12;18.60;99.90
14006;DHT22;7078;51.542;7.314;2023-05-07T09:14:38;18.70;99.90
14006;DHT22;7078;51.542;7.314;2023-05-07T09:17:04;18.80;99.90
14006;DHT22;7078;51.542;7.314;2023-05-07T09:19:30;18.80;99.90
14006;DHT22;7078;51.542;7.314;2023-05-07T09:22:02;18.90;99.90
14006;DHT22;7078;51.542;7.314;2023-05-07T09:24:29;19.00;99.90
14006;DHT22;7078;51.542;7.314;2023-05-07T09:26:59;19.00;99.90
14006;DHT22;7078;51.542;7.314;2023-05-07T09:29:25;19.00;99.90
14006;DHT22;7078;51.542;7.314;2023-05-07T09:31:51;19.20;99.90
14006;DHT22;7078;51.542;7.314;2023-05-07T09:34:16;19.30;99.90
14006;DHT22;7078;51.542;7.314;2023-05-07T09:36:42;19.50;99.90
14006;DHT22;7078;51.542;7.314;2023-05-07T09:39:07;19.80;99.90
14006;DHT22;7078;51.542;7.314;2023-05-07T09:41:43;20.00;99.90
14006;DHT22;7078;51.542;7.314;2023-05-07T09:44:09;20.30;99.90
14006;DHT22;7078;51.542;7.314;2023-05-07T09:46:36;20.30;99.90
14006;DHT22;7078;51.542;7.314;2023-05-07T09:49:06;20.50;99.90
14006;DHT22;7078;51.542;7.314;2023-05-07T09:51:41;20.80;99.90
14006;DHT22;7078;51.542;7.314;2023-05-07T09:54:09;20.80;99.90
14006;DHT22;7078;51.542;7.314;2023-05-07T09:56:35;20.80;99.90
14006;DHT22;7078;51.542;7.314;2023-05-07T09:59:03;20.70;99.90
14006;DHT22;7078;51.542;7.314;2023-05-07T10:01:31;20.70;99.90
14006;DHT22;7078;51.542;7.314;2023-05-07T10:03:57;20.70;99.90
14006;DHT22;7078;51.542;7.314;2023-05-07T10:06:24;20.80;99.90
14006;DHT22;7078;51.542;7.314;2023-05-07T10:08:51;21.00;99.90
14006;DHT22;7078;51.542;7.314;2023-05-07T10:11:18;21.10;99.90
14006;DHT22;7078;51.542;7.314;2023-05-07T10:13:44;21.40;99.90
14006;DHT22;7078;51.542;7.314;2023-05-07T10:16:11;21.50;99.90
14006;DHT22;7078;51.542;7.314;2023-05-07T10:18:38;21.70;99.90
14006;DHT22;7078;51.542;7.314;2023-05-07T10:21:11;21.50;99.90
14006;DHT22;7078;51.542;7.314;2023-05-07T10:23:38;21.50;99.90
14006;DHT22;7078;51.542;7.314;2023-05-07T10:26:08;21.40;99.90
14006;DHT22;7078;51.542;7.314;2023-05-07T10:28:39;21.20;99.90
14006;DHT22;7078;51.542;7.314;2023-05-07T10:33:42;21.00;99.90
14006;DHT22;7078;51.542;7.314;2023-05-07T10:36:09;20.90;99.90
14006;DHT22;7078;51.542;7.314;2023-05-07T10:38:35;21.00;99.90
14006;DHT22;7078;51.542;7.314;2023-05-07T10:41:01;21.00;99.90
14006;DHT22;7078;51.542;7.314;2023-05-07T10:43:39;21.00;99.90
14006;DHT22;7078;51.542;7.314;2023-05-07T10:46:21;21.00;99.90
14006;DHT22;7078;51.542;7.314;2023-05-07T10:51:30;21.10;99.90
14006;DHT22;7078;51.542;7.314;2023-05-07T10:56:38;21.20;99.90
14006;DHT22;7078;51.542;7.314;2023-05-07T11:02:00;21.30;99.90
14006;DHT22;7078;51.542;7.314;2023-05-07T11:04:28;21.60;99.90
14006;DHT22;7078;51.542;7.314;2023-05-07T11:07:20;21.70;99.90
14006;DHT22;7078;51.542;7.314;2023-05-07T11:09:57;21.60;99.90
14006;DHT22;7078;51.542;7.314;2023-05-07T11:15:03;21.60;99.90
14006;DHT22;7078;51.542;7.314;2023-05-07T11:17:29;21.80;99.90
14006;DHT22;7078;51.542;7.314;2023-05-07T11:19:57;21.90;99.90
14006;DHT22;7078;51.542;7.314;2023-05-07T11:25:05;22.20;99.90
14006;DHT22;7078;51.542;7.314;2023-05-07T11:27:31;22.30;99.90
14006;DHT22;7078;51.542;7.314;2023-05-07T11:29:57;22.20;99.90
14006;DHT22;7078;51.542;7.314;2023-05-07T11:32:27;22.00;99.90
14006;DHT22;7078;51.542;7.314;2023-05-07T11:34:54;21.90;99.90
14006;DHT22;7078;51.542;7.314;2023-05-07T11:37:21;21.90;99.90
14006;DHT22;7078;51.542;7.314;2023-05-07T11:39:47;21.90;99.90
14006;DHT22;7078;51.542;7.314;2023-05-07T11:42:30;21.80;99.90
14006;DHT22;7078;51.542;7.314;2023-05-07T11:44:56;21.80;99.90
14006;DHT22;7078;51.542;7.314;2023-05-07T11:47:22;21.90;99.90
14006;DHT22;7078;51.542;7.314;2023-05-07T11:49:48;21.80;99.90
14006;DHT22;7078;51.542;7.314;2023-05-07T11:52:15;21.80;99.90
14006;DHT22;7078;51.542;7.314;2023-05-07T11:54:40;21.90;99.90
14006;DHT22;7078;51.542;7.314;2023-05-07T11:57:06;21.90;99.90
14006;DHT22;7078;51.542;7.314;2023-05-07T11:59:39;21.90;99.90
14006;DHT22;7078;51.542;7.314;2023-05-07T12:02:09;22.00;99.90
14006;DHT22;7078;51.542;7.314;2023-05-07T12:04:50;22.10;99.90
14006;DHT22;7078;51.542;7.314;2023-05-07T12:07:16;22.20;99.90
14006;DHT22;7078;51.542;7.314;2023-05-07T12:09:42;22.50;99.90
14006;DHT22;7078;51.542;7.314;2023-05-07T12:12:08;22.50;99.90
14006;DHT22;7078;51.542;7.314;2023-05-07T12:14:41;22.70;99.90
14006;DHT22;7078;51.542;7.314;2023-05-07T12:17:08;22.70;99.90
14006;DHT22;7078;51.542;7.314;2023-05-07T12:19:35;22.60;99.50
14006;DHT22;7078;51.542;7.314;2023-05-07T12:22:02;22.70;98.40
14006;DHT22;7078;51.542;7.314;2023-05-07T12:24:28;22.60;98.90
14006;DHT22;7078;51.542;7.314;2023-05-07T12:26:54;22.40;97.50
14006;DHT22;7078;51.542;7.314;2023-05-07T12:29:22;22.40;99.90
14006;DHT22;7078;51.542;7.314;2023-05-07T12:31:49;22.50;99.90
14006;DHT22;7078;51.542;7.314;2023-05-07T12:34:15;22.60;99.60
14006;DHT22;7078;51.542;7.314;2023-05-07T12:36:41;22.70;98.60
14006;DHT22;7078;51.542;7.314;2023-05-07T12:39:07;22.70;97.50
14006;DHT22;7078;51.542;7.314;2023-05-07T12:41:55;22.80;97.70
14006;DHT22;7078;51.542;7.314;2023-05-07T12:44:23;22.90;98.50
14006;DHT22;7078;51.542;7.314;2023-05-07T12:46:50;23.00;96.40
14006;DHT22;7078;51.542;7.314;2023-05-07T12:49:15;23.00;97.00
14006;DHT22;7078;51.542;7.314;2023-05-07T12:51:41;23.00;96.00
14006;DHT22;7078;51.542;7.314;2023-05-07T12:54:07;23.00;97.20
14006;DHT22;7078;51.542;7.314;2023-05-07T12:56:35;22.70;97.90
14006;DHT22;7078;51.542;7.314;2023-05-07T12:59:01;22.70;98.10
14006;DHT22;7078;51.542;7.314;2023-05-07T13:01:30;22.50;98.70
14006;DHT22;7078;51.542;7.314;2023-05-07T13:04:00;22.50;99.90
14006;DHT22;7078;51.542;7.314;2023-05-07T13:06:26;22.50;99.90
14006;DHT22;7078;51.542;7.314;2023-05-07T13:08:51;22.40;99.90
14006;DHT22;7078;51.542;7.314;2023-05-07T13:11:17;22.30;99.90
14006;DHT22;7078;51.542;7.314;2023-05-07T13:13:43;22.20;99.90
14006;DHT22;7078;51.542;7.314;2023-05-07T13:16:10;22.20;99.90
14006;DHT22;7078;51.542;7.314;2023-05-07T13:18:37;22.10;99.90
14006;DHT22;7078;51.542;7.314;2023-05-07T13:21:03;21.90;99.90
14006;DHT22;7078;51.542;7.314;2023-05-07T13:23:29;21.90;99.90
14006;DHT22;7078;51.542;7.314;2023-05-07T13:25:55;21.70;99.90
14006;DHT22;7078;51.542;7.314;2023-05-07T13:28:22;21.70;99.90
14006;DHT22;7078;51.542;7.314;2023-05-07T13:30:48;21.70;99.90
14006;DHT22;7078;51.542;7.314;2023-05-07T13:33:15;21.50;99.90
14006;DHT22;7078;51.542;7.314;2023-05-07T13:35:41;21.40;99.90
14006;DHT22;7078;51.542;7.314;2023-05-07T13:38:07;21.30;99.90
14006;DHT22;7078;51.542;7.314;2023-05-07T13:40:32;21.30;99.90
14006;DHT22;7078;51.542;7.314;2023-05-07T13:42:59;21.20;99.90
14006;DHT22;7078;51.542;7.314;2023-05-07T13:45:26;21.20;99.90
14006;DHT22;7078;51.542;7.314;2023-05-07T13:47:52;20.90;99.90
14006;DHT22;7078;51.542;7.314;2023-05-07T13:50:17;21.10;99.90
14006;DHT22;7078;51.542;7.314;2023-05-07T13:52:44;21.10;99.90
14006;DHT22;7078;51.542;7.314;2023-05-07T13:55:20;21.10;99.90
14006;DHT22;7078;51.542;7.314;2023-05-07T13:57:46;21.00;99.90
14006;DHT22;7078;51.542;7.314;2023-05-07T14:00:13;21.10;99.90
14006;DHT22;7078;51.542;7.314;2023-05-07T14:02:39;21.00;99.90
14006;DHT22;7078;51.542;7.314;2023-05-07T14:05:06;21.10;99.90
14006;DHT22;7078;51.542;7.314;2023-05-07T14:07:31;21.00;99.90
14006;DHT22;7078;51.542;7.314;2023-05-07T14:09:57;21.00;99.90
14006;DHT22;7078;51.542;7.314;2023-05-07T14:12:22;20.90;99.90
14006;DHT22;7078;51.542;7.314;2023-05-07T14:14:48;20.90;99.90
14006;DHT22;7078;51.542;7.314;2023-05-07T14:17:16;20.80;99.90
14006;DHT22;7078;51.542;7.314;2023-05-07T14:19:42;20.80;99.90
14006;DHT22;7078;51.542;7.314;2023-05-07T14:22:07;20.70;99.90
14006;DHT22;7078;51.542;7.314;2023-05-07T14:24:33;20.70;99.90
14006;DHT22;7078;51.542;7.314;2023-05-07T14:26:58;20.40;99.90
14006;DHT22;7078;51.542;7.314;2023-05-07T14:29:24;20.40;99.90
14006;DHT22;7078;51.542;7.314;2023-05-07T14:31:50;20.60;99.90
14006;DHT22;7078;51.542;7.314;2023-05-07T14:34:15;20.60;99.90
14006;DHT22;7078;51.542;7.314;2023-05-07T14:36:41;20.60;99.90
14006;DHT22;7078;51.542;7.314;2023-05-07T14:39:06;20.60;99.90
14006;DHT22;7078;51.542;7.314;2023-05-07T14:41:32;20.60;99.90
14006;DHT22;7078;51.542;7.314;2023-05-07T14:43:58;20.60;99.90
14006;DHT22;7078;51.542;7.314;2023-05-07T14:46:24;20.50;99.90
14006;DHT22;7078;51.542;7.314;2023-05-07T14:48:50;20.50;99.90
14006;DHT22;7078;51.542;7.314;2023-05-07T14:51:15;20.60;99.90
14006;DHT22;7078;51.542;7.314;2023-05-07T14:53:41;20.50;99.90
14006;DHT22;7078;51.542;7.314;2023-05-07T14:56:07;20.60;99.90
14006;DHT22;7078;51.542;7.314;2023-05-07T14:58:34;20.50;99.90
14006;DHT22;7078;51.542;7.314;2023-05-07T15:01:00;20.60;99.90
14006;DHT22;7078;51.542;7.314;2023-05-07T15:03:27;20.50;99.90
14006;DHT22;7078;51.542;7.314;2023-05-07T15:05:53;20.40;99.90
14006;DHT22;7078;51.542;7.314;2023-05-07T15:08:19;20.50;99.90
14006;DHT22;7078;51.542;7.314;2023-05-07T15:10:44;20.60;99.90
14006;DHT22;7078;51.542;7.314;2023-05-07T15:13:11;20.70;99.90
14006;DHT22;7078;51.542;7.314;2023-05-07T15:15:38;20.60;99.90
14006;DHT22;7078;51.542;7.314;2023-05-07T15:18:04;20.60;99.90
14006;DHT22;7078;51.542;7.314;2023-05-07T15:20:30;20.60;99.90
14006;DHT22;7078;51.542;7.314;2023-05-07T15:22:56;20.60;99.90
14006;DHT22;7078;51.542;7.314;2023-05-07T15:25:22;20.60;99.90
14006;DHT22;7078;51.542;7.314;2023-05-07T15:27:48;20.60;99.90
14006;DHT22;7078;51.542;7.314;2023-05-07T15:30:14;20.60;99.90
14006;DHT22;7078;51.542;7.314;2023-05-07T15:32:40;20.50;99.90
14006;DHT22;7078;51.542;7.314;2023-05-07T15:35:06;20.50;99.90
14006;DHT22;7078;51.542;7.314;2023-05-07T15:37:33;20.50;99.90
14006;DHT22;7078;51.542;7.314;2023-05-07T15:39:58;20.40;99.90
14006;DHT22;7078;51.542;7.314;2023-05-07T15:42:24;20.40;99.90
14006;DHT22;7078;51.542;7.314;2023-05-07T15:44:49;20.40;99.90
14006;DHT22;7078;51.542;7.314;2023-05-07T15:47:15;20.40;99.90
14006;DHT22;7078;51.542;7.314;2023-05-07T15:49:41;20.40;99.90
14006;DHT22;7078;51.542;7.314;2023-05-07T15:52:07;20.40;99.90
14006;DHT22;7078;51.542;7.314;2023-05-07T15:54:35;20.40;99.90
14006;DHT22;7078;51.542;7.314;2023-05-07T15:57:03;20.40;99.90